sensor_id;sensor_type;location;lat;lon;timestamp;P1;durP1;ratioP1;P2;durP2;ratioP2
10463;SDS011;5279;42.048;24.638;2023-03-24T00:00:15;3.40;;;3.10;;
10463;SDS011;5279;42.048;24.638;2023-03-24T00:02:45;2.90;;;2.60;;
10463;SDS011;5279;42.048;24.638;2023-03-24T00:05:17;3.57;;;2.90;;
10463;SDS011;5279;42.048;24.638;2023-03-24T00:07:45;2.90;;;2.60;;
10463;SDS011;5279;42.048;24.638;2023-03-24T00:10:16;3.47;;;3.17;;
10463;SDS011;5279;42.048;24.638;2023-03-24T00:12:45;3.30;;;3.00;;
10463;SDS011;5279;42.048;24.638;2023-03-24T00:15:15;3.10;;;2.90;;
10463;SDS011;5279;42.048;24.638;2023-03-24T00:17:43;3.10;;;2.70;;
10463;SDS011;5279;42.048;24.638;2023-03-24T00:20:11;3.80;;;3.20;;
10463;SDS011;5279;42.048;24.638;2023-03-24T00:22:41;3.10;;;2.70;;
10463;SDS011;5279;42.048;24.638;2023-03-24T00:25:14;3.73;;;3.40;;
10463;SDS011;5279;42.048;24.638;2023-03-24T00:27:41;3.57;;;2.80;;
10463;SDS011;5279;42.048;24.638;2023-03-24T00:30:10;2.97;;;2.77;;
10463;SDS011;5279;42.048;24.638;2023-03-24T00:32:39;3.30;;;2.83;;
10463;SDS011;5279;42.048;24.638;2023-03-24T00:35:07;4.27;;;2.80;;
10463;SDS011;5279;42.048;24.638;2023-03-24T00:37:39;3.80;;;2.63;;
10463;SDS011;5279;42.048;24.638;2023-03-24T00:40:09;3.17;;;2.87;;
10463;SDS011;5279;42.048;24.638;2023-03-24T00:42:38;3.03;;;2.60;;
10463;SDS011;5279;42.048;24.638;2023-03-24T00:45:09;5.83;;;3.23;;
10463;SDS011;5279;42.048;24.638;2023-03-24T00:47:39;3.30;;;3.00;;
10463;SDS011;5279;42.048;24.638;2023-03-24T00:50:10;4.77;;;2.83;;
10463;SDS011;5279;42.048;24.638;2023-03-24T00:52:39;2.63;;;2.43;;
10463;SDS011;5279;42.048;24.638;2023-03-24T00:55:09;3.13;;;2.87;;
10463;SDS011;5279;42.048;24.638;2023-03-24T00:57:39;3.17;;;2.87;;
10463;SDS011;5279;42.048;24.638;2023-03-24T01:00:14;3.10;;;2.80;;
10463;SDS011;5279;42.048;24.638;2023-03-24T01:02:46;3.40;;;3.07;;
10463;SDS011;5279;42.048;24.638;2023-03-24T01:05:17;3.87;;;2.90;;
10463;SDS011;5279;42.048;24.638;2023-03-24T01:07:45;2.93;;;2.67;;
10463;SDS011;5279;42.048;24.638;2023-03-24T01:10:17;3.10;;;2.80;;
10463;SDS011;5279;42.048;24.638;2023-03-24T01:12:48;3.10;;;2.80;;
10463;SDS011;5279;42.048;24.638;2023-03-24T01:15:18;3.70;;;2.90;;
10463;SDS011;5279;42.048;24.638;2023-03-24T01:17:47;3.40;;;3.10;;
10463;SDS011;5279;42.048;24.638;2023-03-24T01:20:14;3.07;;;2.77;;
10463;SDS011;5279;42.048;24.638;2023-03-24T01:22:41;3.20;;;2.90;;
10463;SDS011;5279;42.048;24.638;2023-03-24T01:25:10;3.30;;;3.00;;
10463;SDS011;5279;42.048;24.638;2023-03-24T01:27:41;3.30;;;3.00;;
10463;SDS011;5279;42.048;24.638;2023-03-24T01:30:10;3.53;;;3.23;;
10463;SDS011;5279;42.048;24.638;2023-03-24T01:32:38;3.17;;;2.87;;
10463;SDS011;5279;42.048;24.638;2023-03-24T01:35:06;3.37;;;3.07;;
10463;SDS011;5279;42.048;24.638;2023-03-24T01:37:34;3.30;;;3.00;;
10463;SDS011;5279;42.048;24.638;2023-03-24T01:40:01;3.30;;;3.00;;
10463;SDS011;5279;42.048;24.638;2023-03-24T01:42:36;3.90;;;2.90;;
10463;SDS011;5279;42.048;24.638;2023-03-24T01:48:04;3.83;;;3.40;;
10463;SDS011;5279;42.048;24.638;2023-03-24T01:50:33;3.77;;;3.07;;
10463;SDS011;5279;42.048;24.638;2023-03-24T01:53:03;4.73;;;3.37;;
10463;SDS011;5279;42.048;24.638;2023-03-24T01:55:31;4.07;;;3.50;;
10463;SDS011;5279;42.048;24.638;2023-03-24T01:57:59;4.37;;;3.70;;
10463;SDS011;5279;42.048;24.638;2023-03-24T02:00:28;3.53;;;3.23;;
10463;SDS011;5279;42.048;24.638;2023-03-24T02:02:56;3.13;;;2.83;;
10463;SDS011;5279;42.048;24.638;2023-03-24T02:05:27;4.57;;;3.60;;
10463;SDS011;5279;42.048;24.638;2023-03-24T02:08:00;3.77;;;3.30;;
10463;SDS011;5279;42.048;24.638;2023-03-24T02:10:32;4.70;;;3.80;;
10463;SDS011;5279;42.048;24.638;2023-03-24T02:13:00;3.83;;;3.33;;
10463;SDS011;5279;42.048;24.638;2023-03-24T02:15:30;4.53;;;3.57;;
10463;SDS011;5279;42.048;24.638;2023-03-24T02:18:02;3.57;;;3.27;;
10463;SDS011;5279;42.048;24.638;2023-03-24T02:27:15;3.90;;;3.40;;
10463;SDS011;5279;42.048;24.638;2023-03-24T02:30:16;3.83;;;3.13;;
10463;SDS011;5279;42.048;24.638;2023-03-24T02:33:06;3.70;;;3.27;;
10463;SDS011;5279;42.048;24.638;2023-03-24T02:35:57;4.03;;;3.33;;
10463;SDS011;5279;42.048;24.638;2023-03-24T02:38:53;3.97;;;3.07;;
10463;SDS011;5279;42.048;24.638;2023-03-24T02:42:03;4.07;;;3.33;;
10463;SDS011;5279;42.048;24.638;2023-03-24T02:44:38;3.50;;;3.20;;
10463;SDS011;5279;42.048;24.638;2023-03-24T02:47:14;3.43;;;3.07;;
10463;SDS011;5279;42.048;24.638;2023-03-24T02:49:45;4.07;;;3.27;;
10463;SDS011;5279;42.048;24.638;2023-03-24T02:52:17;4.23;;;3.40;;
10463;SDS011;5279;42.048;24.638;2023-03-24T02:54:56;3.37;;;3.00;;
10463;SDS011;5279;42.048;24.638;2023-03-24T02:57:27;4.30;;;3.07;;
10463;SDS011;5279;42.048;24.638;2023-03-24T02:59:59;4.07;;;3.50;;
10463;SDS011;5279;42.048;24.638;2023-03-24T03:02:33;3.77;;;3.10;;
10463;SDS011;5279;42.048;24.638;2023-03-24T03:05:05;3.33;;;3.03;;
10463;SDS011;5279;42.048;24.638;2023-03-24T03:07:38;4.07;;;3.60;;
10463;SDS011;5279;42.048;24.638;2023-03-24T03:10:07;3.77;;;3.20;;
10463;SDS011;5279;42.048;24.638;2023-03-24T03:12:41;3.77;;;2.90;;
10463;SDS011;5279;42.048;24.638;2023-03-24T03:15:13;3.47;;;3.00;;
10463;SDS011;5279;42.048;24.638;2023-03-24T03:17:45;3.90;;;3.47;;
10463;SDS011;5279;42.048;24.638;2023-03-24T03:20:18;3.43;;;3.10;;
10463;SDS011;5279;42.048;24.638;2023-03-24T03:22:49;3.40;;;3.10;;
10463;SDS011;5279;42.048;24.638;2023-03-24T03:25:23;3.30;;;3.00;;
10463;SDS011;5279;42.048;24.638;2023-03-24T03:27:56;3.67;;;3.07;;
10463;SDS011;5279;42.048;24.638;2023-03-24T03:30:26;3.73;;;3.33;;
10463;SDS011;5279;42.048;24.638;2023-03-24T03:32:59;4.83;;;3.13;;
10463;SDS011;5279;42.048;24.638;2023-03-24T03:35:34;3.70;;;3.20;;
10463;SDS011;5279;42.048;24.638;2023-03-24T03:38:06;4.37;;;3.53;;
10463;SDS011;5279;42.048;24.638;2023-03-24T03:40:40;4.17;;;3.17;;
10463;SDS011;5279;42.048;24.638;2023-03-24T03:43:14;3.57;;;3.00;;
10463;SDS011;5279;42.048;24.638;2023-03-24T03:45:41;4.00;;;3.40;;
10463;SDS011;5279;42.048;24.638;2023-03-24T03:48:08;3.40;;;3.10;;
10463;SDS011;5279;42.048;24.638;2023-03-24T03:50:36;3.67;;;3.00;;
10463;SDS011;5279;42.048;24.638;2023-03-24T03:53:04;4.00;;;3.60;;
10463;SDS011;5279;42.048;24.638;2023-03-24T03:55:31;3.93;;;3.53;;
10463;SDS011;5279;42.048;24.638;2023-03-24T03:57:59;4.13;;;3.73;;
10463;SDS011;5279;42.048;24.638;2023-03-24T04:00:28;3.40;;;2.97;;
10463;SDS011;5279;42.048;24.638;2023-03-24T04:03:06;3.40;;;3.10;;
10463;SDS011;5279;42.048;24.638;2023-03-24T04:05:57;2.97;;;2.47;;
10463;SDS011;5279;42.048;24.638;2023-03-24T04:08:30;3.87;;;3.20;;
10463;SDS011;5279;42.048;24.638;2023-03-24T04:11:17;5.40;;;3.10;;
10463;SDS011;5279;42.048;24.638;2023-03-24T04:13:56;4.10;;;2.90;;
10463;SDS011;5279;42.048;24.638;2023-03-24T04:16:38;3.10;;;2.80;;
10463;SDS011;5279;42.048;24.638;2023-03-24T04:19:16;3.47;;;2.83;;
10463;SDS011;5279;42.048;24.638;2023-03-24T04:22:00;3.40;;;2.63;;
10463;SDS011;5279;42.048;24.638;2023-03-24T04:24:39;2.70;;;2.50;;
10463;SDS011;5279;42.048;24.638;2023-03-24T04:27:15;3.47;;;3.00;;
10463;SDS011;5279;42.048;24.638;2023-03-24T04:29:52;3.50;;;3.20;;
10463;SDS011;5279;42.048;24.638;2023-03-24T04:32:30;3.47;;;2.83;;
10463;SDS011;5279;42.048;24.638;2023-03-24T04:35:07;3.10;;;2.80;;
10463;SDS011;5279;42.048;24.638;2023-03-24T04:37:37;3.77;;;2.63;;
10463;SDS011;5279;42.048;24.638;2023-03-24T04:40:05;3.03;;;2.73;;
10463;SDS011;5279;42.048;24.638;2023-03-24T04:42:36;3.57;;;3.00;;
10463;SDS011;5279;42.048;24.638;2023-03-24T04:45:09;2.77;;;2.37;;
10463;SDS011;5279;42.048;24.638;2023-03-24T04:47:41;2.90;;;2.70;;
10463;SDS011;5279;42.048;24.638;2023-03-24T04:50:11;3.30;;;2.67;;
10463;SDS011;5279;42.048;24.638;2023-03-24T04:52:39;3.50;;;2.80;;
10463;SDS011;5279;42.048;24.638;2023-03-24T04:55:16;3.43;;;2.93;;
10463;SDS011;5279;42.048;24.638;2023-03-24T04:57:58;2.80;;;2.50;;
10463;SDS011;5279;42.048;24.638;2023-03-24T05:00:25;2.93;;;2.63;;
10463;SDS011;5279;42.048;24.638;2023-03-24T05:02:54;2.93;;;2.63;;
10463;SDS011;5279;42.048;24.638;2023-03-24T05:05:21;5.20;;;2.77;;
10463;SDS011;5279;42.048;24.638;2023-03-24T05:07:48;2.57;;;2.27;;
10463;SDS011;5279;42.048;24.638;2023-03-24T05:10:16;5.43;;;2.57;;
10463;SDS011;5279;42.048;24.638;2023-03-24T05:12:43;4.13;;;2.20;;
10463;SDS011;5279;42.048;24.638;2023-03-24T05:15:10;3.07;;;2.77;;
10463;SDS011;5279;42.048;24.638;2023-03-24T05:17:38;3.00;;;2.70;;
10463;SDS011;5279;42.048;24.638;2023-03-24T05:20:07;2.50;;;2.30;;
10463;SDS011;5279;42.048;24.638;2023-03-24T05:22:36;2.47;;;2.27;;
10463;SDS011;5279;42.048;24.638;2023-03-24T05:25:04;3.57;;;2.40;;
10463;SDS011;5279;42.048;24.638;2023-03-24T05:27:31;3.20;;;2.90;;
10463;SDS011;5279;42.048;24.638;2023-03-24T05:29:58;2.57;;;2.23;;
10463;SDS011;5279;42.048;24.638;2023-03-24T05:32:25;2.67;;;2.47;;
10463;SDS011;5279;42.048;24.638;2023-03-24T05:34:52;2.87;;;2.60;;
10463;SDS011;5279;42.048;24.638;2023-03-24T05:37:21;2.60;;;2.40;;
10463;SDS011;5279;42.048;24.638;2023-03-24T05:39:47;3.13;;;2.57;;
10463;SDS011;5279;42.048;24.638;2023-03-24T05:42:16;2.57;;;2.37;;
10463;SDS011;5279;42.048;24.638;2023-03-24T05:44:43;3.37;;;2.57;;
10463;SDS011;5279;42.048;24.638;2023-03-24T05:47:10;2.57;;;2.37;;
10463;SDS011;5279;42.048;24.638;2023-03-24T05:49:40;2.53;;;2.33;;
10463;SDS011;5279;42.048;24.638;2023-03-24T05:52:07;3.70;;;2.53;;
10463;SDS011;5279;42.048;24.638;2023-03-24T05:54:35;3.10;;;2.80;;
10463;SDS011;5279;42.048;24.638;2023-03-24T05:57:03;3.30;;;3.00;;
10463;SDS011;5279;42.048;24.638;2023-03-24T05:59:32;4.43;;;3.20;;
10463;SDS011;5279;42.048;24.638;2023-03-24T06:01:59;4.20;;;3.13;;
10463;SDS011;5279;42.048;24.638;2023-03-24T06:04:30;4.50;;;4.10;;
10463;SDS011;5279;42.048;24.638;2023-03-24T06:06:56;4.97;;;3.70;;
10463;SDS011;5279;42.048;24.638;2023-03-24T06:09:24;3.10;;;2.80;;
10463;SDS011;5279;42.048;24.638;2023-03-24T06:11:54;2.70;;;2.50;;
10463;SDS011;5279;42.048;24.638;2023-03-24T06:14:22;3.30;;;2.67;;
10463;SDS011;5279;42.048;24.638;2023-03-24T06:16:49;3.20;;;2.90;;
10463;SDS011;5279;42.048;24.638;2023-03-24T06:19:16;3.23;;;2.93;;
10463;SDS011;5279;42.048;24.638;2023-03-24T06:21:46;2.93;;;2.63;;
10463;SDS011;5279;42.048;24.638;2023-03-24T06:24:14;3.83;;;3.43;;
10463;SDS011;5279;42.048;24.638;2023-03-24T06:26:42;3.93;;;3.43;;
10463;SDS011;5279;42.048;24.638;2023-03-24T06:29:10;3.90;;;3.53;;
10463;SDS011;5279;42.048;24.638;2023-03-24T06:31:38;7.30;;;4.47;;
10463;SDS011;5279;42.048;24.638;2023-03-24T06:34:08;7.33;;;5.17;;
10463;SDS011;5279;42.048;24.638;2023-03-24T06:36:34;6.03;;;4.70;;
10463;SDS011;5279;42.048;24.638;2023-03-24T06:39:01;5.53;;;4.33;;
10463;SDS011;5279;42.048;24.638;2023-03-24T06:41:29;5.73;;;5.13;;
10463;SDS011;5279;42.048;24.638;2023-03-24T06:43:56;7.43;;;4.90;;
10463;SDS011;5279;42.048;24.638;2023-03-24T06:46:25;6.50;;;4.93;;
10463;SDS011;5279;42.048;24.638;2023-03-24T06:48:51;6.30;;;5.67;;
10463;SDS011;5279;42.048;24.638;2023-03-24T06:51:18;8.03;;;5.60;;
10463;SDS011;5279;42.048;24.638;2023-03-24T06:53:45;6.43;;;5.33;;
10463;SDS011;5279;42.048;24.638;2023-03-24T06:56:13;7.77;;;6.10;;
10463;SDS011;5279;42.048;24.638;2023-03-24T06:58:45;7.70;;;5.07;;
10463;SDS011;5279;42.048;24.638;2023-03-24T07:01:12;6.07;;;5.47;;
10463;SDS011;5279;42.048;24.638;2023-03-24T07:03:41;8.83;;;4.90;;
10463;SDS011;5279;42.048;24.638;2023-03-24T07:06:10;6.13;;;5.30;;
10463;SDS011;5279;42.048;24.638;2023-03-24T07:08:37;5.87;;;5.30;;
10463;SDS011;5279;42.048;24.638;2023-03-24T07:11:04;5.90;;;4.87;;
10463;SDS011;5279;42.048;24.638;2023-03-24T07:13:33;8.20;;;6.17;;
10463;SDS011;5279;42.048;24.638;2023-03-24T07:16:00;7.57;;;6.10;;
10463;SDS011;5279;42.048;24.638;2023-03-24T07:18:28;6.27;;;5.67;;
10463;SDS011;5279;42.048;24.638;2023-03-24T07:20:56;6.47;;;5.50;;
10463;SDS011;5279;42.048;24.638;2023-03-24T07:23:27;6.50;;;5.80;;
10463;SDS011;5279;42.048;24.638;2023-03-24T07:25:54;6.53;;;5.83;;
10463;SDS011;5279;42.048;24.638;2023-03-24T07:28:21;7.13;;;5.17;;
10463;SDS011;5279;42.048;24.638;2023-03-24T07:30:49;6.43;;;5.80;;
10463;SDS011;5279;42.048;24.638;2023-03-24T07:33:17;6.07;;;5.40;;
10463;SDS011;5279;42.048;24.638;2023-03-24T07:35:45;6.60;;;5.53;;
10463;SDS011;5279;42.048;24.638;2023-03-24T07:38:13;7.57;;;5.83;;
10463;SDS011;5279;42.048;24.638;2023-03-24T07:40:40;7.87;;;5.70;;
10463;SDS011;5279;42.048;24.638;2023-03-24T07:43:09;6.57;;;5.80;;
10463;SDS011;5279;42.048;24.638;2023-03-24T07:45:36;6.20;;;5.17;;
10463;SDS011;5279;42.048;24.638;2023-03-24T07:48:03;6.33;;;5.00;;
10463;SDS011;5279;42.048;24.638;2023-03-24T07:50:33;6.47;;;5.47;;
10463;SDS011;5279;42.048;24.638;2023-03-24T07:53:00;7.43;;;5.63;;
10463;SDS011;5279;42.048;24.638;2023-03-24T07:55:29;7.43;;;5.77;;
10463;SDS011;5279;42.048;24.638;2023-03-24T07:57:56;6.43;;;5.37;;
10463;SDS011;5279;42.048;24.638;2023-03-24T08:00:23;6.53;;;5.93;;
10463;SDS011;5279;42.048;24.638;2023-03-24T08:02:54;6.80;;;5.53;;
10463;SDS011;5279;42.048;24.638;2023-03-24T08:05:21;7.20;;;5.93;;
10463;SDS011;5279;42.048;24.638;2023-03-24T08:07:49;6.23;;;5.57;;
10463;SDS011;5279;42.048;24.638;2023-03-24T08:10:18;6.70;;;5.17;;
10463;SDS011;5279;42.048;24.638;2023-03-24T08:12:48;5.93;;;5.27;;
10463;SDS011;5279;42.048;24.638;2023-03-24T08:15:16;7.00;;;5.40;;
10463;SDS011;5279;42.048;24.638;2023-03-24T08:17:46;6.33;;;5.57;;
10463;SDS011;5279;42.048;24.638;2023-03-24T08:20:15;7.40;;;5.80;;
10463;SDS011;5279;42.048;24.638;2023-03-24T08:22:43;7.37;;;5.20;;
10463;SDS011;5279;42.048;24.638;2023-03-24T08:25:14;7.70;;;5.63;;
10463;SDS011;5279;42.048;24.638;2023-03-24T08:27:44;7.47;;;5.83;;
10463;SDS011;5279;42.048;24.638;2023-03-24T08:30:15;6.30;;;5.20;;
10463;SDS011;5279;42.048;24.638;2023-03-24T08:32:44;7.20;;;5.20;;
10463;SDS011;5279;42.048;24.638;2023-03-24T08:35:13;5.97;;;5.30;;
10463;SDS011;5279;42.048;24.638;2023-03-24T08:37:42;5.67;;;5.07;;
10463;SDS011;5279;42.048;24.638;2023-03-24T08:40:11;5.53;;;5.03;;
10463;SDS011;5279;42.048;24.638;2023-03-24T08:42:41;7.10;;;5.63;;
10463;SDS011;5279;42.048;24.638;2023-03-24T08:45:09;5.73;;;5.10;;
10463;SDS011;5279;42.048;24.638;2023-03-24T08:47:39;7.27;;;5.53;;
10463;SDS011;5279;42.048;24.638;2023-03-24T08:50:06;6.93;;;5.80;;
10463;SDS011;5279;42.048;24.638;2023-03-24T08:52:34;6.30;;;5.70;;
10463;SDS011;5279;42.048;24.638;2023-03-24T08:55:01;7.03;;;6.00;;
10463;SDS011;5279;42.048;24.638;2023-03-24T08:57:28;5.40;;;4.90;;
10463;SDS011;5279;42.048;24.638;2023-03-24T08:59:55;5.80;;;5.20;;
10463;SDS011;5279;42.048;24.638;2023-03-24T09:02:22;10.67;;;5.50;;
10463;SDS011;5279;42.048;24.638;2023-03-24T09:04:50;7.70;;;5.73;;
10463;SDS011;5279;42.048;24.638;2023-03-24T09:07:19;5.47;;;4.97;;
10463;SDS011;5279;42.048;24.638;2023-03-24T09:09:46;6.80;;;5.70;;
10463;SDS011;5279;42.048;24.638;2023-03-24T09:12:14;6.67;;;5.07;;
10463;SDS011;5279;42.048;24.638;2023-03-24T09:14:46;7.43;;;5.50;;
10463;SDS011;5279;42.048;24.638;2023-03-24T09:17:13;6.03;;;5.03;;
10463;SDS011;5279;42.048;24.638;2023-03-24T09:19:40;6.43;;;5.40;;
10463;SDS011;5279;42.048;24.638;2023-03-24T09:22:09;6.57;;;5.60;;
10463;SDS011;5279;42.048;24.638;2023-03-24T09:24:36;5.90;;;5.30;;
10463;SDS011;5279;42.048;24.638;2023-03-24T09:27:04;8.80;;;6.70;;
10463;SDS011;5279;42.048;24.638;2023-03-24T09:29:31;6.07;;;4.60;;
10463;SDS011;5279;42.048;24.638;2023-03-24T09:31:57;6.00;;;5.33;;
10463;SDS011;5279;42.048;24.638;2023-03-24T09:34:24;5.40;;;4.90;;
10463;SDS011;5279;42.048;24.638;2023-03-24T09:36:53;5.53;;;4.87;;
10463;SDS011;5279;42.048;24.638;2023-03-24T09:39:26;5.80;;;5.20;;
10463;SDS011;5279;42.048;24.638;2023-03-24T09:41:54;5.77;;;5.13;;
10463;SDS011;5279;42.048;24.638;2023-03-24T09:44:22;5.80;;;5.23;;
10463;SDS011;5279;42.048;24.638;2023-03-24T09:46:54;6.15;;;5.10;;
10463;SDS011;5279;42.048;24.638;2023-03-24T09:49:26;5.97;;;4.97;;
10463;SDS011;5279;42.048;24.638;2023-03-24T09:51:59;5.30;;;4.75;;
10463;SDS011;5279;42.048;24.638;2023-03-24T09:54:32;5.50;;;4.82;;
10463;SDS011;5279;42.048;24.638;2023-03-24T09:57:04;5.75;;;5.25;;
10463;SDS011;5279;42.048;24.638;2023-03-24T09:59:42;5.88;;;5.28;;
10463;SDS011;5279;42.048;24.638;2023-03-24T10:02:10;6.60;;;5.90;;
10463;SDS011;5279;42.048;24.638;2023-03-24T10:04:39;5.80;;;5.20;;
10463;SDS011;5279;42.048;24.638;2023-03-24T10:07:06;6.57;;;5.45;;
10463;SDS011;5279;42.048;24.638;2023-03-24T10:09:42;6.18;;;5.35;;
10463;SDS011;5279;42.048;24.638;2023-03-24T10:12:16;7.20;;;5.28;;
10463;SDS011;5279;42.048;24.638;2023-03-24T10:14:55;7.43;;;5.82;;
10463;SDS011;5279;42.048;24.638;2023-03-24T10:17:35;6.25;;;5.65;;
10463;SDS011;5279;42.048;24.638;2023-03-24T10:20:14;6.03;;;5.20;;
10463;SDS011;5279;42.048;24.638;2023-03-24T10:22:52;5.40;;;4.90;;
10463;SDS011;5279;42.048;24.638;2023-03-24T10:25:30;5.97;;;5.00;;
10463;SDS011;5279;42.048;24.638;2023-03-24T10:28:08;6.10;;;5.47;;
10463;SDS011;5279;42.048;24.638;2023-03-24T10:30:43;5.70;;;5.20;;
10463;SDS011;5279;42.048;24.638;2023-03-24T10:33:13;6.90;;;5.35;;
10463;SDS011;5279;42.048;24.638;2023-03-24T10:35:41;5.72;;;4.80;;
10463;SDS011;5279;42.048;24.638;2023-03-24T10:38:19;5.50;;;5.00;;
10463;SDS011;5279;42.048;24.638;2023-03-24T10:40:50;6.38;;;5.60;;
10463;SDS011;5279;42.048;24.638;2023-03-24T10:43:19;6.53;;;5.50;;
10463;SDS011;5279;42.048;24.638;2023-03-24T10:45:54;5.80;;;5.30;;
10463;SDS011;5279;42.048;24.638;2023-03-24T10:48:33;6.55;;;5.35;;
10463;SDS011;5279;42.048;24.638;2023-03-24T10:51:11;5.30;;;4.75;;
10463;SDS011;5279;42.048;24.638;2023-03-24T10:53:40;6.50;;;5.22;;
10463;SDS011;5279;42.048;24.638;2023-03-24T10:56:09;5.55;;;5.05;;
10463;SDS011;5279;42.048;24.638;2023-03-24T10:58:41;5.07;;;4.60;;
10463;SDS011;5279;42.048;24.638;2023-03-24T11:01:19;5.30;;;4.75;;
10463;SDS011;5279;42.048;24.638;2023-03-24T11:03:50;5.72;;;5.20;;
10463;SDS011;5279;42.048;24.638;2023-03-24T11:06:18;5.68;;;5.18;;
10463;SDS011;5279;42.048;24.638;2023-03-24T11:08:47;5.70;;;5.18;;
10463;SDS011;5279;42.048;24.638;2023-03-24T11:11:46;8.35;;;5.28;;
10463;SDS011;5279;42.048;24.638;2023-03-24T11:14:20;6.18;;;5.07;;
10463;SDS011;5279;42.048;24.638;2023-03-24T11:16:50;5.47;;;4.75;;
10463;SDS011;5279;42.048;24.638;2023-03-24T11:19:18;5.00;;;4.57;;
10463;SDS011;5279;42.048;24.638;2023-03-24T11:21:46;5.30;;;4.80;;
10463;SDS011;5279;42.048;24.638;2023-03-24T11:24:15;5.55;;;4.95;;
10463;SDS011;5279;42.048;24.638;2023-03-24T11:26:45;6.13;;;5.38;;
10463;SDS011;5279;42.048;24.638;2023-03-24T11:29:20;6.40;;;5.15;;
10463;SDS011;5279;42.048;24.638;2023-03-24T11:31:50;5.72;;;5.00;;
10463;SDS011;5279;42.048;24.638;2023-03-24T11:34:19;5.25;;;4.75;;
10463;SDS011;5279;42.048;24.638;2023-03-24T11:36:50;4.43;;;4.03;;
10463;SDS011;5279;42.048;24.638;2023-03-24T11:39:21;5.25;;;4.80;;
10463;SDS011;5279;42.048;24.638;2023-03-24T11:42:04;5.22;;;4.72;;
10463;SDS011;5279;42.048;24.638;2023-03-24T11:44:46;5.93;;;5.05;;
10463;SDS011;5279;42.048;24.638;2023-03-24T11:47:22;4.65;;;4.03;;
10463;SDS011;5279;42.048;24.638;2023-03-24T11:49:56;6.10;;;4.28;;
10463;SDS011;5279;42.048;24.638;2023-03-24T11:52:33;4.30;;;4.00;;
10463;SDS011;5279;42.048;24.638;2023-03-24T11:55:05;4.47;;;4.10;;
10463;SDS011;5279;42.048;24.638;2023-03-24T11:57:44;5.10;;;4.60;;
10463;SDS011;5279;42.048;24.638;2023-03-24T12:00:18;4.82;;;4.32;;
10463;SDS011;5279;42.048;24.638;2023-03-24T12:06:17;5.22;;;4.15;;
10463;SDS011;5279;42.048;24.638;2023-03-24T12:08:55;4.00;;;3.70;;
10463;SDS011;5279;42.048;24.638;2023-03-24T12:11:32;4.15;;;3.85;;
10463;SDS011;5279;42.048;24.638;2023-03-24T12:14:12;3.92;;;3.60;;
10463;SDS011;5279;42.048;24.638;2023-03-24T12:16:46;4.15;;;3.63;;
10463;SDS011;5279;42.048;24.638;2023-03-24T12:22:14;3.70;;;3.40;;
10463;SDS011;5279;42.048;24.638;2023-03-24T12:25:01;3.78;;;3.38;;
10463;SDS011;5279;42.048;24.638;2023-03-24T12:27:46;4.18;;;3.67;;
10463;SDS011;5279;42.048;24.638;2023-03-24T12:30:27;3.58;;;3.28;;
10463;SDS011;5279;42.048;24.638;2023-03-24T12:33:00;3.47;;;3.15;;
10463;SDS011;5279;42.048;24.638;2023-03-24T12:35:58;3.75;;;3.45;;
10463;SDS011;5279;42.048;24.638;2023-03-24T12:38:45;3.40;;;3.10;;
10463;SDS011;5279;42.048;24.638;2023-03-24T12:41:25;3.35;;;3.08;;
10463;SDS011;5279;42.048;24.638;2023-03-24T12:44:18;3.45;;;3.15;;
10463;SDS011;5279;42.048;24.638;2023-03-24T12:46:57;4.25;;;2.80;;
10463;SDS011;5279;42.048;24.638;2023-03-24T12:49:34;3.10;;;2.80;;
10463;SDS011;5279;42.048;24.638;2023-03-24T12:52:19;3.65;;;2.95;;
10463;SDS011;5279;42.048;24.638;2023-03-24T12:55:06;3.22;;;3.03;;
10463;SDS011;5279;42.048;24.638;2023-03-24T12:57:38;2.85;;;2.65;;
10463;SDS011;5279;42.048;24.638;2023-03-24T13:00:12;2.83;;;2.60;;
10463;SDS011;5279;42.048;24.638;2023-03-24T13:02:47;3.17;;;2.88;;
10463;SDS011;5279;42.048;24.638;2023-03-24T13:05:20;3.40;;;3.08;;
10463;SDS011;5279;42.048;24.638;2023-03-24T13:07:55;2.63;;;2.42;;
10463;SDS011;5279;42.048;24.638;2023-03-24T13:10:26;2.80;;;2.60;;
10463;SDS011;5279;42.048;24.638;2023-03-24T13:12:57;4.65;;;2.70;;
10463;SDS011;5279;42.048;24.638;2023-03-24T13:15:29;3.13;;;2.85;;
10463;SDS011;5279;42.048;24.638;2023-03-24T13:18:03;2.90;;;2.70;;
10463;SDS011;5279;42.048;24.638;2023-03-24T13:20:39;2.55;;;2.35;;
10463;SDS011;5279;42.048;24.638;2023-03-24T13:23:15;2.50;;;2.30;;
10463;SDS011;5279;42.048;24.638;2023-03-24T13:25:58;4.03;;;2.72;;
10463;SDS011;5279;42.048;24.638;2023-03-24T13:28:33;2.75;;;2.55;;
10463;SDS011;5279;42.048;24.638;2023-03-24T13:31:10;2.50;;;2.30;;
10463;SDS011;5279;42.048;24.638;2023-03-24T13:33:40;2.50;;;2.30;;
10463;SDS011;5279;42.048;24.638;2023-03-24T13:36:13;3.40;;;2.42;;
10463;SDS011;5279;42.048;24.638;2023-03-24T13:38:51;2.42;;;2.22;;
10463;SDS011;5279;42.048;24.638;2023-03-24T13:41:20;3.45;;;2.30;;
10463;SDS011;5279;42.048;24.638;2023-03-24T13:43:57;2.22;;;2.03;;
10463;SDS011;5279;42.048;24.638;2023-03-24T13:46:26;2.65;;;2.45;;
10463;SDS011;5279;42.048;24.638;2023-03-24T13:48:56;3.83;;;3.50;;
10463;SDS011;5279;42.048;24.638;2023-03-24T13:51:25;2.65;;;2.45;;
10463;SDS011;5279;42.048;24.638;2023-03-24T13:53:55;2.38;;;2.17;;
10463;SDS011;5279;42.048;24.638;2023-03-24T13:56:26;2.53;;;2.30;;
10463;SDS011;5279;42.048;24.638;2023-03-24T13:59:08;2.55;;;2.35;;
10463;SDS011;5279;42.048;24.638;2023-03-24T14:05:09;2.60;;;2.40;;
10463;SDS011;5279;42.048;24.638;2023-03-24T14:07:44;2.90;;;2.70;;
10463;SDS011;5279;42.048;24.638;2023-03-24T14:13:17;2.73;;;2.53;;
10463;SDS011;5279;42.048;24.638;2023-03-24T14:15:48;2.57;;;2.37;;
10463;SDS011;5279;42.048;24.638;2023-03-24T14:21:07;2.57;;;2.37;;
10463;SDS011;5279;42.048;24.638;2023-03-24T14:23:36;2.47;;;2.27;;
10463;SDS011;5279;42.048;24.638;2023-03-24T14:26:06;2.53;;;2.33;;
10463;SDS011;5279;42.048;24.638;2023-03-24T14:28:38;2.80;;;2.60;;
10463;SDS011;5279;42.048;24.638;2023-03-24T14:31:15;2.80;;;2.60;;
10463;SDS011;5279;42.048;24.638;2023-03-24T14:36:42;3.23;;;2.93;;
10463;SDS011;5279;42.048;24.638;2023-03-24T14:39:11;4.50;;;2.70;;
10463;SDS011;5279;42.048;24.638;2023-03-24T14:41:50;2.80;;;2.30;;
10463;SDS011;5279;42.048;24.638;2023-03-24T14:47:18;2.53;;;2.33;;
10463;SDS011;5279;42.048;24.638;2023-03-24T14:49:47;3.97;;;2.60;;
10463;SDS011;5279;42.048;24.638;2023-03-24T14:52:19;4.63;;;2.37;;
10463;SDS011;5279;42.048;24.638;2023-03-24T14:54:50;2.40;;;2.20;;
10463;SDS011;5279;42.048;24.638;2023-03-24T14:57:20;2.83;;;2.50;;
10463;SDS011;5279;42.048;24.638;2023-03-24T14:59:51;2.73;;;2.50;;
10463;SDS011;5279;42.048;24.638;2023-03-24T15:02:29;2.77;;;2.57;;
10463;SDS011;5279;42.048;24.638;2023-03-24T15:05:22;2.60;;;2.40;;
10463;SDS011;5279;42.048;24.638;2023-03-24T15:08:04;3.27;;;2.63;;
10463;SDS011;5279;42.048;24.638;2023-03-24T15:10:38;4.03;;;2.20;;
10463;SDS011;5279;42.048;24.638;2023-03-24T15:13:24;2.60;;;2.17;;
10463;SDS011;5279;42.048;24.638;2023-03-24T15:15:59;3.40;;;2.50;;
10463;SDS011;5279;42.048;24.638;2023-03-24T15:18:28;2.90;;;2.60;;
10463;SDS011;5279;42.048;24.638;2023-03-24T15:20:55;2.27;;;2.07;;
10463;SDS011;5279;42.048;24.638;2023-03-24T15:23:25;7.80;;;2.43;;
10463;SDS011;5279;42.048;24.638;2023-03-24T15:25:53;2.67;;;2.43;;
10463;SDS011;5279;42.048;24.638;2023-03-24T15:28:21;2.40;;;2.20;;
10463;SDS011;5279;42.048;24.638;2023-03-24T15:30:51;2.47;;;2.23;;
10463;SDS011;5279;42.048;24.638;2023-03-24T15:33:19;2.13;;;2.03;;
10463;SDS011;5279;42.048;24.638;2023-03-24T15:35:46;3.17;;;2.20;;
10463;SDS011;5279;42.048;24.638;2023-03-24T15:38:20;2.30;;;2.10;;
10463;SDS011;5279;42.048;24.638;2023-03-24T15:40:56;3.23;;;2.70;;
10463;SDS011;5279;42.048;24.638;2023-03-24T15:43:26;3.57;;;3.10;;
10463;SDS011;5279;42.048;24.638;2023-03-24T15:45:53;14.10;;;9.90;;